Time;durP1;ratioP1;P1;durP2;ratioP2;P2;SDS_P1;SDS_P2;PMS_P1;PMS_P2;Temp;Humidity;BMP_temperature;BMP_pressure;BME280_temperature;BME280_humidity;BME280_pressure;Samples;Min_cycle;Max_cycle;Signal;HPM_P1;HPM_P2
2023/11/25 00:11:49;;;;;;;10.57;4.40;;;;;;;10.97;100.00;98467.59;31117782;28;20085;-82
2023/11/25 00:26:52;;;;;;;10.47;5.10;;;;;;;10.90;100.00;98473.38;31118001;28;20058;-79
2023/11/25 00:41:54;;;;;;;14.37;5.87;;;;;;;10.54;100.00;98483.16;31111479;28;20076;-82
2023/11/25 00:56:57;;;;;;;10.33;5.43;;;;;;;10.75;100.00;98475.25;31083814;28;20078;-81
2023/11/25 01:12:00;;;;;;;10.70;4.60;;;;;;;10.70;100.00;98457.63;31053051;28;20124;-81
2023/11/25 01:27:02;;;;;;;9.90;4.50;;;;;;;10.76;100.00;98446.91;31072959;28;20058;-81
2023/11/25 01:42:04;;;;;;;15.83;4.97;;;;;;;11.12;100.00;98468.41;31062778;28;20073;-81
2023/11/25 01:57:08;;;;;;;8.03;3.87;;;;;;;11.31;100.00;98473.78;31069816;28;20045;-82
2023/11/25 02:12:11;;;;;;;5.67;3.37;;;;;;;11.11;95.05;98488.66;31067406;28;20117;-83
2023/11/25 02:27:13;;;;;;;18.43;9.07;;;;;;;10.91;98.63;98502.00;31033028;28;20058;-81
2023/11/25 02:42:17;;;;;;;14.57;7.50;;;;;;;10.82;100.00;98499.34;31031853;28;20092;-81
2023/11/25 02:57:19;;;;;;;12.83;6.27;;;;;;;10.91;100.00;98515.59;31065528;28;20057;-83
2023/11/25 03:12:22;;;;;;;11.87;6.63;;;;;;;10.91;100.00;98535.34;31012419;28;20150;-80
2023/11/25 03:27:24;;;;;;;13.77;6.90;;;;;;;10.67;100.00;98544.63;31042837;28;20492;-81
2023/11/25 03:42:27;;;;;;;12.13;6.90;;;;;;;10.93;100.00;98567.47;31069722;28;20085;-82
2023/11/25 03:57:29;;;;;;;11.27;7.00;;;;;;;10.88;100.00;98579.69;31047848;28;20057;-79
2023/11/25 04:12:33;;;;;;;9.77;5.00;;;;;;;10.65;100.00;98576.88;31052422;28;20061;-80
2023/11/25 04:27:35;;;;;;;7.00;4.13;;;;;;;10.67;100.00;98590.75;31072459;28;20056;-78
2023/11/25 04:42:38;;;;;;;14.23;5.23;;;;;;;10.68;100.00;98587.59;31067182;28;20085;-79
2023/11/25 04:57:41;;;;;;;10.73;5.50;;;;;;;10.72;100.00;98573.84;31058753;28;20053;-80
2023/11/25 05:12:44;;;;;;;13.33;6.23;;;;;;;10.50;100.00;98593.78;31053106;28;20149;-78
2023/11/25 05:27:46;;;;;;;11.20;5.93;;;;;;;10.36;100.00;98588.25;31071398;28;20062;-79
2023/11/25 05:42:53;;;;;;;12.40;5.60;;;;;;;10.46;100.00;98595.91;31050673;28;20065;-79
2023/11/25 05:57:55;;;;;;;26.80;14.77;;;;;;;10.46;100.00;98620.31;31073493;28;20500;-81
2023/11/25 06:13:01;;;;;;;21.07;10.63;;;;;;;10.77;100.00;98627.53;31063151;28;20060;-81
2023/11/25 06:28:03;;;;;;;17.77;7.90;;;;;;;11.03;100.00;98619.78;31055548;28;20053;-80
2023/11/25 06:43:06;;;;;;;19.00;8.50;;;;;;;11.10;100.00;98616.78;31023813;28;20149;-81
2023/11/25 06:58:11;;;;;;;14.53;6.60;;;;;;;11.21;100.00;98617.03;31064951;28;20092;-80
2023/11/25 07:13:13;;;;;;;18.10;8.07;;;;;;;11.25;100.00;98610.22;31080070;28;20070;-82
2023/11/25 07:28:15;;;;;;;18.70;10.37;;;;;;;11.16;100.00;98609.47;31063205;28;20163;-82
2023/11/25 07:43:18;;;;;;;21.63;11.90;;;;;;;11.46;100.00;98605.00;31109360;28;20056;-80
2023/11/25 07:58:22;;;;;;;23.50;13.73;;;;;;;11.53;100.00;98615.53;31093070;28;20045;-80
2023/11/25 08:13:26;;;;;;;50.47;22.97;;;;;;;11.53;100.00;98619.00;31079917;28;20835;-82
2023/11/25 08:28:28;;;;;;;29.57;14.83;;;;;;;11.58;100.00;98612.19;31128975;28;20069;-83
2023/11/25 08:43:30;;;;;;;37.53;18.13;;;;;;;11.73;100.00;98604.88;31052642;28;20511;-82
2023/11/25 08:58:32;;;;;;;33.33;11.20;;;;;;;12.05;100.00;98583.53;31058506;28;20054;-82
2023/11/25 09:13:34;;;;;;;24.07;9.87;;;;;;;12.10;96.14;98596.50;31061563;28;20053;-82
2023/11/25 09:28:36;;;;;;;20.17;8.73;;;;;;;12.24;94.39;98568.59;31091263;28;20046;-78
2023/11/25 09:43:39;;;;;;;12.03;6.43;;;;;;;11.94;86.90;98557.63;31052941;28;20055;-84
2023/11/25 09:58:42;;;;;;;25.03;12.80;;;;;;;11.88;83.81;98554.03;31060252;28;20042;-83
2023/11/25 10:13:46;;;;;;;13.20;5.77;;;;;;;11.58;83.63;98525.22;31050248;28;20408;-85
2023/11/25 10:28:51;;;;;;;8.47;3.77;;;;;;;11.81;82.49;98521.75;31084823;28;20112;-82
2023/11/25 10:43:53;;;;;;;9.13;3.83;;;;;;;11.84;81.83;98531.72;31052415;28;20108;-83
2023/11/25 10:58:56;;;;;;;11.40;5.17;;;;;;;11.87;83.30;98536.22;31079248;28;20711;-87
2023/11/25 11:14:07;;;;;;;15.97;6.23;;;;;;;11.87;83.80;98536.22;31140760;28;20419;-83
2023/11/25 11:29:34;;;;;;;11.07;5.50;;;;;;;11.89;83.17;98517.47;31094812;28;20042;-84
2023/11/25 11:45:11;;;;;;;20.90;8.17;;;;;;;12.09;81.50;98513.38;31064541;28;20499;-84
2023/11/25 12:00:15;;;;;;;13.73;6.53;;;;;;;11.81;79.08;98508.16;31069629;28;20046;-82
2023/11/25 12:15:20;;;;;;;5.75;3.30;;;;;;;11.58;79.21;98515.09;31076037;28;20093;-79
2023/11/25 12:30:22;;;;;;;6.90;3.07;;;;;;;11.39;76.03;98519.13;31032620;28;20132;-76
2023/11/25 12:45:40;;;;;;;4.50;2.40;;;;;;;11.22;74.59;98540.50;31059088;28;20313;-78
2023/11/25 13:00:55;;;;;;;4.40;1.80;;;;;;;10.62;77.30;98545.25;31074259;28;20069;-78
2023/11/25 13:15:57;;;;;;;4.67;2.33;;;;;;;10.22;85.41;98557.03;31093631;28;20504;-77
2023/11/25 13:30:59;;;;;;;3.33;2.07;;;;;;;9.41;99.28;98550.28;31095891;28;20496;-78
2023/11/25 13:46:03;;;;;;;4.93;2.30;;;;;;;8.94;100.00;98542.47;31093358;28;20087;-79
2023/11/25 14:01:05;;;;;;;30.07;10.37;;;;;;;8.47;100.00;98525.22;31055354;28;20157;-79
2023/11/25 14:16:09;;;;;;;6.33;4.00;;;;;;;8.68;100.00;98506.69;31047578;28;20054;-79
2023/11/25 14:31:12;;;;;;;4.57;3.30;;;;;;;8.34;100.00;98492.09;31117733;28;20057;-82
2023/11/25 14:46:15;;;;;;;5.70;3.67;;;;;;;7.34;100.00;98448.81;31067776;28;20504;-82
2023/11/25 15:01:17;;;;;;;7.90;4.60;;;;;;;7.37;100.00;98414.78;31094385;28;20046;-84
2023/11/25 15:16:19;;;;;;;5.57;3.33;;;;;;;7.42;100.00;98389.94;31101902;28;20086;-85
2023/11/25 15:31:21;;;;;;;7.33;3.87;;;;;;;7.45;100.00;98399.88;31140152;28;20049;-88
2023/11/25 15:46:24;;;;;;;7.23;4.47;;;;;;;7.57;100.00;98401.75;31087590;28;20050;-83
2023/11/25 16:01:27;;;;;;;20.80;9.13;;;;;;;7.53;100.00;98374.91;31130898;28;20496;-82
2023/11/25 16:16:31;;;;;;;8.60;3.30;;;;;;;7.39;100.00;98353.03;31048272;28;20455;-79
2023/11/25 16:31:34;;;;;;;5.97;3.90;;;;;;;7.26;100.00;98322.63;31117891;28;20049;-86
2023/11/25 16:46:37;;;;;;;5.07;3.13;;;;;;;6.89;100.00;98298.03;31097738;28;20056;-82
2023/11/25 17:01:42;;;;;;;7.03;3.93;;;;;;;6.99;100.00;98256.47;31109185;28;20050;-82
2023/11/25 17:16:44;;;;;;;4.63;2.90;;;;;;;6.83;100.00;98238.53;31059310;28;20431;-79
2023/11/25 17:31:46;;;;;;;3.77;2.50;;;;;;;6.96;100.00;98208.03;31061557;28;20488;-81
2023/11/25 17:46:51;;;;;;;9.43;4.47;;;;;;;7.00;100.00;98166.25;31097702;28;20054;-79
2023/11/25 18:01:54;;;;;;;23.07;10.07;;;;;;;6.88;100.00;98126.59;31079010;28;20054;-82
2023/11/25 18:16:58;;;;;;;3.20;2.40;;;;;;;7.01;100.00;98119.22;31063484;28;20061;-82
2023/11/25 18:32:00;;;;;;;5.77;3.17;;;;;;;7.02;100.00;98074.09;31069606;28;20391;-84
2023/11/25 18:47:02;;;;;;;4.60;2.77;;;;;;;7.18;100.00;98061.13;31049657;28;20050;-83
2023/11/25 19:02:05;;;;;;;3.13;2.10;;;;;;;6.93;100.00;98047.81;31074550;28;20054;-85
2023/11/25 19:17:07;;;;;;;2.97;2.33;;;;;;;7.12;100.00;98016.25;31027479;28;20787;-83
2023/11/25 19:32:10;;;;;;;4.63;2.70;;;;;;;7.28;100.00;97982.91;31093869;28;20057;-83
2023/11/25 19:47:12;;;;;;;8.67;4.63;;;;;;;7.43;100.00;97938.69;31059244;28;20061;-83
2023/11/25 20:02:14;;;;;;;5.10;2.27;;;;;;;7.56;100.00;97933.13;31067991;28;20046;-79
2023/11/25 20:17:17;;;;;;;3.83;2.00;;;;;;;7.48;100.00;97892.19;31062544;28;20156;-79
2023/11/25 20:32:21;;;;;;;2.33;2.10;;;;;;;7.40;100.00;97880.19;31082863;28;20049;-83
2023/11/25 20:47:23;;;;;;;3.73;2.07;;;;;;;7.69;100.00;97868.91;31058860;28;20731;-82
2023/11/25 21:02:26;;;;;;;3.63;2.30;;;;;;;7.57;100.00;97845.53;31084365;28;20092;-82
2023/11/25 21:17:28;;;;;;;2.73;1.60;;;;;;;7.77;100.00;97837.72;31087273;28;20092;-83
2023/11/25 21:32:30;;;;;;;9.47;4.73;;;;;;;7.72;100.00;97822.13;31085071;28;20045;-81
2023/11/25 21:47:32;;;;;;;5.80;3.13;;;;;;;7.66;100.00;97794.22;31069877;28;20054;-82
2023/11/25 22:02:36;;;;;;;9.63;2.50;;;;;;;8.02;100.00;97762.91;31070336;28;20456;-81
2023/11/25 22:17:39;;;;;;;3.73;2.37;;;;;;;7.84;100.00;97739.38;31090464;28;20503;-78
2023/11/25 22:32:41;;;;;;;3.07;2.60;;;;;;;7.99;100.00;97712.47;31101789;28;20045;-81
2023/11/25 22:47:43;;;;;;;5.90;3.67;;;;;;;7.73;100.00;97664.28;31063198;28;20128;-80
2023/11/25 23:02:46;;;;;;;16.87;6.53;;;;;;;7.98;100.00;97629.94;31018857;28;20050;-79
2023/11/25 23:17:48;;;;;;;35.10;13.20;;;;;;;8.04;100.00;97628.06;31078913;28;20092;-80
2023/11/25 23:32:50;;;;;;;43.87;15.73;;;;;;;8.36;100.00;97599.50;31102774;28;20078;-80
2023/11/25 23:47:52;;;;;;;48.90;18.97;;;;;;;8.56;100.00;97602.31;31066935;28;20052;-80
